createdAt,value
2022-08-22T00:01:39.656Z,99575.19
2022-08-22T00:03:08.327Z,99566.59
2022-08-22T00:04:57.115Z,99574.25
2022-08-22T00:08:07.891Z,99564.59
2022-08-22T00:11:15.379Z,99566.63
2022-08-22T00:14:19.938Z,99561.41
2022-08-22T00:17:36.800Z,99569.03
2022-08-22T00:21:01.364Z,99561.47
2022-08-22T00:24:18.113Z,99562.31
2022-08-22T00:27:22.563Z,99566.44
2022-08-22T00:30:25.173Z,99558.63
2022-08-22T00:33:45.004Z,99561.28
2022-08-22T00:37:08.137Z,99564.50
2022-08-22T00:40:19.346Z,99564.75
2022-08-22T00:43:33.055Z,99565.16
2022-08-22T00:46:46.679Z,99563.56
2022-08-22T00:49:48.134Z,99563.44
2022-08-22T00:52:58.510Z,99569.03
2022-08-22T00:56:03.014Z,99568.78
2022-08-22T00:59:24.177Z,99555.97
2022-08-22T01:02:40.767Z,99562.00
2022-08-22T01:05:48.390Z,99559.19
2022-08-22T01:08:52.906Z,99553.88
2022-08-22T01:11:54.539Z,99549.84
2022-08-22T01:14:59.877Z,99547.41
2022-08-22T01:18:20.338Z,99536.38
2022-08-22T01:21:42.073Z,99542.03
2022-08-22T01:25:18.426Z,99530.22
2022-08-22T01:28:24.106Z,99528.19
2022-08-22T01:31:42.491Z,99533.63
2022-08-22T01:34:53.663Z,99517.63
2022-08-22T01:38:13.868Z,99525.41
2022-08-22T01:41:17.081Z,99531.47
2022-08-22T01:44:37.349Z,99512.47
2022-08-22T01:47:54.342Z,99508.41
2022-08-22T01:51:14.646Z,99517.31
2022-08-22T01:54:22.118Z,99523.78
2022-08-22T01:57:24.667Z,99517.28
2022-08-22T02:00:35.528Z,99516.94
2022-08-22T02:03:43.068Z,99517.13
2022-08-22T02:06:58.453Z,99523.16
2022-08-22T02:10:18.235Z,99523.50
2022-08-22T02:13:19.806Z,99529.66
2022-08-22T02:16:21.245Z,99535.06
2022-08-22T02:19:38.629Z,99533.88
2022-08-22T02:22:53.126Z,99528.00
2022-08-22T02:25:57.847Z,99530.13
2022-08-22T02:29:07.764Z,99531.28
2022-08-22T02:32:19.013Z,99526.72
2022-08-22T02:35:20.489Z,99523.91
2022-08-22T02:38:36.329Z,99517.03
2022-08-22T02:41:47.264Z,99525.19
2022-08-22T02:44:48.727Z,99514.56
2022-08-22T02:47:59.649Z,99513.97
2022-08-22T02:51:05.812Z,99518.38
2022-08-22T02:54:24.668Z,99519.34
2022-08-22T02:57:39.554Z,99519.06
2022-08-22T03:00:44.199Z,99531.53
2022-08-22T03:03:46.526Z,99532.59
2022-08-22T03:07:03.187Z,99521.25
2022-08-22T03:10:16.571Z,99526.81
2022-08-22T03:13:36.140Z,99529.47
2022-08-22T03:16:40.535Z,99528.81
2022-08-22T03:19:51.297Z,99530.91
2022-08-22T03:23:00.081Z,99532.00
2022-08-22T03:26:13.657Z,99532.00
2022-08-22T03:29:24.254Z,99530.25
2022-08-22T03:32:45.654Z,99530.16
2022-08-22T03:35:47.208Z,99536.06
2022-08-22T03:38:48.686Z,99534.56
2022-08-22T03:42:08.737Z,99537.97
2022-08-22T03:45:29.002Z,99544.50
2022-08-22T03:48:49.401Z,99548.72
2022-08-22T03:51:53.939Z,99540.56
2022-08-22T03:55:14.135Z,99546.03
2022-08-22T03:58:30.841Z,99546.47
2022-08-22T04:02:01.859Z,99549.94
2022-08-22T04:05:03.309Z,99557.66
2022-08-22T04:08:26.303Z,99560.53
2022-08-22T04:11:41.292Z,99552.97
2022-08-22T04:14:44.072Z,99562.16
2022-08-22T04:18:04.330Z,99554.44
2022-08-22T04:21:06.202Z,99555.84
2022-08-22T04:24:15.748Z,99550.72
2022-08-22T04:27:36.179Z,99554.41
2022-08-22T04:30:40.815Z,99551.34
2022-08-22T04:34:02.896Z,99543.59
2022-08-22T04:37:10.039Z,99551.16
2022-08-22T04:40:24.427Z,99546.25
2022-08-22T04:43:44.781Z,99544.22
2022-08-22T04:46:52.629Z,99551.78
2022-08-22T04:50:02.018Z,99548.72
2022-08-22T04:53:06.570Z,99552.38
2022-08-22T04:56:08.045Z,99551.97
2022-08-22T04:59:16.418Z,99547.69
2022-08-22T05:02:22.727Z,99555.22
2022-08-22T05:05:26.020Z,99547.69
2022-08-22T05:08:31.978Z,99552.19
2022-08-22T05:11:35.591Z,99545.44
2022-08-22T05:14:57.364Z,99555.44
2022-08-22T05:18:02.764Z,99550.28
2022-08-22T05:21:07.499Z,99557.19
2022-08-22T05:24:22.057Z,99559.66
2022-08-22T05:27:44.034Z,99553.50
2022-08-22T05:30:47.699Z,99562.56
2022-08-22T05:33:51.736Z,99557.00
2022-08-22T05:37:00.129Z,99563.03
2022-08-22T05:40:01.860Z,99568.88
2022-08-22T05:43:04.548Z,99568.06
2022-08-22T05:46:07.767Z,99566.63
2022-08-22T05:49:20.777Z,99565.63
2022-08-22T05:52:48.655Z,99570.09
2022-08-22T05:55:50.368Z,99576.00
2022-08-22T05:58:55.343Z,99580.06
2022-08-22T06:02:12.568Z,99580.88
2022-08-22T06:05:20.043Z,99577.97
2022-08-22T06:08:31.193Z,99575.66
2022-08-22T06:11:38.805Z,99576.63
2022-08-22T06:14:46.780Z,99581.94
2022-08-22T06:17:55.430Z,99588.19
2022-08-22T06:21:01.932Z,99581.78
2022-08-22T06:24:05.639Z,99582.94
2022-08-22T06:27:12.401Z,99586.13
2022-08-22T06:30:15.443Z,99596.25
2022-08-22T06:33:21.420Z,99596.44
2022-08-22T06:36:33.629Z,99601.16
2022-08-22T06:39:36.810Z,99610.88
2022-08-22T06:42:40.838Z,99616.59
2022-08-22T06:45:42.560Z,99608.13
2022-08-22T06:48:44.827Z,99604.97
2022-08-22T06:51:47.415Z,99607.78
2022-08-22T06:54:52.749Z,99609.16
2022-08-22T06:57:56.500Z,99617.06
2022-08-22T07:01:11.768Z,99620.34
2022-08-22T07:04:14.363Z,99620.09
2022-08-22T07:07:17.975Z,99621.53
2022-08-22T07:10:21.833Z,99618.22
2022-08-22T07:13:25.196Z,99625.63
2022-08-22T07:16:34.360Z,99632.28
2022-08-22T07:19:37.860Z,99624.59
2022-08-22T07:22:39.445Z,99623.78
2022-08-22T07:26:04.331Z,99624.13
2022-08-22T07:29:17.024Z,99626.53
2022-08-22T07:32:20.390Z,99623.69
2022-08-22T07:35:26.659Z,99627.34
2022-08-22T07:38:42.926Z,99626.34
2022-08-22T07:42:03.453Z,99632.47
2022-08-22T07:45:25.179Z,99630.75
2022-08-22T07:48:38.300Z,99626.03
2022-08-22T07:51:52.971Z,99627.81
2022-08-22T07:55:17.817Z,99626.34
2022-08-22T07:58:21.762Z,99632.56
2022-08-22T08:01:23.879Z,99628.31
2022-08-22T08:04:30.757Z,99628.84
2022-08-22T08:07:32.613Z,99623.34
2022-08-22T08:10:36.438Z,99625.69
2022-08-22T08:13:41.542Z,99623.97
2022-08-22T08:16:45.735Z,99627.13
2022-08-22T08:19:48.019Z,99621.13
2022-08-22T08:22:50.034Z,99625.78
2022-08-22T08:26:00.758Z,99627.34
2022-08-22T08:29:03.669Z,99627.84
2022-08-22T08:32:07.712Z,99626.97
2022-08-22T08:35:18.525Z,99625.66
2022-08-22T08:38:26.466Z,99614.09
2022-08-22T08:41:39.655Z,99611.31
2022-08-22T08:44:47.126Z,99615.97
2022-08-22T08:47:58.639Z,99607.66
2022-08-22T08:51:09.335Z,99603.22
2022-08-22T08:54:21.713Z,99597.63
2022-08-22T08:57:43.248Z,99594.59
2022-08-22T09:00:51.087Z,99598.59
2022-08-22T09:03:52.651Z,99603.53
2022-08-22T09:07:01.360Z,99602.34
2022-08-22T09:10:16.487Z,99602.78
2022-08-22T09:13:40.882Z,99604.09
2022-08-22T09:16:47.301Z,99601.06
2022-08-22T09:20:17.719Z,99594.94
2022-08-22T09:23:54.107Z,99592.53
2022-08-22T09:27:03.700Z,99596.50
2022-08-22T09:30:12.298Z,99596.94
2022-08-22T09:33:17.105Z,99595.19
2022-08-22T09:36:23.575Z,99601.00
2022-08-22T09:39:31.394Z,99605.59
2022-08-22T09:42:44.862Z,99601.28
2022-08-22T09:45:52.294Z,99594.44
2022-08-22T09:48:56.968Z,99596.72
2022-08-22T09:52:15.633Z,99600.59
2022-08-22T09:55:47.820Z,99599.03
2022-08-22T09:58:57.877Z,99592.97
2022-08-22T10:02:05.989Z,99593.88
2022-08-22T10:05:07.635Z,99588.81
2022-08-22T10:08:13.274Z,99588.28
2022-08-22T10:11:30.577Z,99584.50
2022-08-22T10:14:40.598Z,99582.88
2022-08-22T10:18:01.014Z,99588.84
2022-08-22T10:21:11.524Z,99586.69
2022-08-22T10:24:25.181Z,99570.75
2022-08-22T10:27:39.435Z,99563.16
2022-08-22T10:31:00.411Z,99560.78
2022-08-22T10:34:01.942Z,99563.88
2022-08-22T10:37:06.622Z,99551.59
2022-08-22T10:40:08.273Z,99552.03
2022-08-22T10:43:13.164Z,99556.03
2022-08-22T10:46:16.767Z,99550.22
2022-08-22T10:49:22.464Z,99549.09
2022-08-22T10:52:41.361Z,99552.56
2022-08-22T10:55:44.992Z,99547.38
2022-08-22T10:58:54.905Z,99542.03
2022-08-22T11:02:05.476Z,99535.09
2022-08-22T11:05:09.732Z,99543.78
2022-08-22T11:08:17.312Z,99528.81
2022-08-22T11:11:18.978Z,99525.38
2022-08-22T11:14:26.957Z,99526.84
2022-08-22T11:17:53.744Z,99523.00
2022-08-22T11:20:55.446Z,99522.97
2022-08-22T11:24:03.139Z,99509.47
2022-08-22T11:27:37.890Z,99511.84
2022-08-22T11:30:50.432Z,99513.88
2022-08-22T11:34:03.600Z,99508.22
2022-08-22T11:37:43.570Z,99507.16
2022-08-22T11:40:50.251Z,99497.72
2022-08-22T11:43:57.463Z,99496.00
2022-08-22T11:47:01.370Z,99500.47
2022-08-22T11:50:22.189Z,99502.06
2022-08-22T11:53:32.742Z,99496.66
2022-08-22T11:56:37.202Z,99495.75
2022-08-22T11:59:43.441Z,99488.25
2022-08-22T12:02:50.538Z,99484.97
2022-08-22T12:05:55.910Z,99482.81
2022-08-22T12:09:00.556Z,99481.63
2022-08-22T12:12:05.193Z,99477.72
2022-08-22T12:15:22.043Z,99480.66
2022-08-22T12:18:29.684Z,99467.56
2022-08-22T12:21:31.273Z,99466.63
2022-08-22T12:24:36.045Z,99469.59
2022-08-22T12:27:37.765Z,99464.03
2022-08-22T12:30:56.166Z,99468.63
2022-08-22T12:34:07.419Z,99471.41
2022-08-22T12:37:16.968Z,99472.44
2022-08-22T12:40:27.260Z,99463.47
2022-08-22T12:43:42.447Z,99462.75
2022-08-22T12:46:57.052Z,99451.59
2022-08-22T12:50:12.363Z,99448.78
2022-08-22T12:53:20.627Z,99439.28
2022-08-22T12:56:36.951Z,99447.81
2022-08-22T12:59:41.613Z,99442.19
2022-08-22T13:02:44.975Z,99437.59
2022-08-22T13:05:56.710Z,99432.88
2022-08-22T13:09:28.423Z,99436.78
2022-08-22T13:12:52.524Z,99438.88
2022-08-22T13:16:05.463Z,99431.59
2022-08-22T13:19:13.452Z,99435.41
2022-08-22T13:22:21.929Z,99437.66
2022-08-22T13:25:26.383Z,99435.06
2022-08-22T13:28:30.087Z,99436.72
2022-08-22T13:31:33.626Z,99428.69
2022-08-22T13:34:40.094Z,99431.78
2022-08-22T13:37:45.876Z,99419.56
2022-08-22T13:40:52.591Z,99422.22
2022-08-22T13:43:59.301Z,99423.19
2022-08-22T13:47:14.774Z,99416.25
2022-08-22T13:50:25.310Z,99412.81
2022-08-22T13:53:48.994Z,99419.69
2022-08-22T13:57:08.010Z,99415.66
2022-08-22T14:00:28.572Z,99412.59
2022-08-22T14:03:40.013Z,99407.75
2022-08-22T14:06:45.388Z,99406.63
2022-08-22T14:09:54.215Z,99406.22
2022-08-22T14:12:56.203Z,99399.03
2022-08-22T14:16:02.229Z,99401.53
2022-08-22T14:19:07.467Z,99392.72
2022-08-22T14:22:14.509Z,99391.09
2022-08-22T14:25:21.553Z,99383.47
2022-08-22T14:28:27.651Z,99379.88
2022-08-22T14:31:30.021Z,99386.69
2022-08-22T14:34:35.106Z,99376.75
2022-08-22T14:37:38.966Z,99377.59
2022-08-22T14:40:42.258Z,99381.16
2022-08-22T14:43:53.417Z,99385.34
2022-08-22T14:47:32.373Z,99378.38
2022-08-22T14:50:40.621Z,99375.91
2022-08-22T14:53:43.883Z,99369.81
2022-08-22T14:56:48.028Z,99364.22
2022-08-22T14:59:51.943Z,99360.53
2022-08-22T15:02:54.602Z,99360.34
2022-08-22T15:05:58.227Z,99357.88
2022-08-22T15:09:01.020Z,99356.66
2022-08-22T15:12:39.075Z,99352.63
2022-08-22T15:15:53.495Z,99352.03
2022-08-22T15:18:57.695Z,99351.13
2022-08-22T15:22:09.664Z,99353.59
2022-08-22T15:25:19.882Z,99353.00
2022-08-22T15:28:22.789Z,99351.03
2022-08-22T15:31:27.554Z,99346.25
2022-08-22T15:34:39.728Z,99346.38
2022-08-22T15:37:59.388Z,99342.97
2022-08-22T15:41:22.083Z,99343.75
2022-08-22T15:44:50.011Z,99341.13
2022-08-22T15:47:53.448Z,99337.16
2022-08-22T15:51:04.585Z,99339.84
2022-08-22T15:54:24.407Z,99337.16
2022-08-22T15:57:29.565Z,99326.19
2022-08-22T16:00:43.237Z,99326.09
2022-08-22T16:03:58.432Z,99338.34
2022-08-22T16:07:01.330Z,99329.00
2022-08-22T16:10:06.369Z,99329.97
2022-08-22T16:13:26.246Z,99324.16
2022-08-22T16:16:43.063Z,99330.97
2022-08-22T16:19:44.566Z,99327.69
2022-08-22T16:22:58.409Z,99325.50
2022-08-22T16:25:59.902Z,99319.84
2022-08-22T16:29:21.355Z,99329.19
2022-08-22T16:32:25.127Z,99321.56
2022-08-22T16:35:45.483Z,99322.88
2022-08-22T16:38:49.162Z,99323.44
2022-08-22T16:41:51.922Z,99322.81
2022-08-22T16:45:08.345Z,99326.44
2022-08-22T16:48:15.999Z,99320.81
2022-08-22T16:51:21.380Z,99324.72
2022-08-22T16:54:44.134Z,99330.47
2022-08-22T16:58:05.649Z,99330.63
2022-08-22T17:01:11.069Z,99323.88
2022-08-22T17:04:37.884Z,99334.78
2022-08-22T17:07:52.759Z,99329.19
2022-08-22T17:11:13.114Z,99336.00
2022-08-22T17:14:27.299Z,99331.69
2022-08-22T17:17:47.824Z,99332.16
2022-08-22T17:21:00.596Z,99339.72
2022-08-22T17:24:11.721Z,99336.50
2022-08-22T17:27:35.003Z,99335.53
2022-08-22T17:30:44.447Z,99339.25
2022-08-22T17:33:58.159Z,99347.22
2022-08-22T17:37:05.773Z,99344.41
2022-08-22T17:40:10.458Z,99341.41
2022-08-22T17:43:15.195Z,99344.88
2022-08-22T17:46:19.921Z,99339.22
2022-08-22T17:49:29.405Z,99344.19
2022-08-22T17:52:30.856Z,99348.34
2022-08-22T17:55:34.346Z,99351.94
2022-08-22T17:58:43.743Z,99360.53
2022-08-22T18:02:01.157Z,99357.88
2022-08-22T18:05:08.892Z,99359.75
2022-08-22T18:08:38.370Z,99361.91
2022-08-22T18:11:46.200Z,99356.25
2022-08-22T18:14:54.634Z,99363.22
2022-08-22T18:18:02.808Z,99366.69
2022-08-22T18:21:20.870Z,99367.75
2022-08-22T18:24:32.613Z,99375.19
2022-08-22T18:27:37.726Z,99385.78
2022-08-22T18:30:53.770Z,99381.50
2022-08-22T18:33:59.472Z,99386.28
2022-08-22T18:37:21.033Z,99379.03
2022-08-22T18:40:33.112Z,99381.47
2022-08-22T18:43:37.177Z,99386.94
2022-08-22T18:46:38.719Z,99386.63
2022-08-22T18:49:43.285Z,99390.38
2022-08-22T18:52:44.890Z,99401.88
2022-08-22T18:55:58.217Z,99396.44
2022-08-22T18:59:32.188Z,99397.94
2022-08-22T19:03:03.652Z,99409.06
2022-08-22T19:06:20.694Z,99402.66
2022-08-22T19:09:47.185Z,99407.13
2022-08-22T19:12:49.684Z,99410.06
2022-08-22T19:16:06.015Z,99417.63
2022-08-22T19:19:21.669Z,99418.44
2022-08-22T19:22:23.129Z,99426.50
2022-08-22T19:25:28.697Z,99421.81
2022-08-22T19:28:35.459Z,99425.25
2022-08-22T19:31:38.859Z,99426.78
2022-08-22T19:34:41.690Z,99432.88
2022-08-22T19:37:55.876Z,99425.00
2022-08-22T19:40:58.279Z,99434.19
2022-08-22T19:44:06.578Z,99428.34
2022-08-22T19:47:17.371Z,99430.41
2022-08-22T19:50:18.822Z,99424.75
2022-08-22T19:53:27.485Z,99426.25
2022-08-22T19:56:36.922Z,99431.84
2022-08-22T19:59:50.901Z,99427.69
2022-08-22T20:03:01.968Z,99426.09
2022-08-22T20:06:42.624Z,99431.22
2022-08-22T20:09:40.221Z,99430.38
2022-08-22T20:13:03.832Z,99428.69
2022-08-22T20:16:09.538Z,99437.22
2022-08-22T20:19:11.847Z,99436.84
2022-08-22T20:22:19.198Z,99437.28
2022-08-22T20:25:42.085Z,99433.13
2022-08-22T20:28:52.278Z,99438.09
2022-08-22T20:31:58.159Z,99434.19
2022-08-22T20:35:01.747Z,99435.47
2022-08-22T20:38:07.163Z,99431.56
2022-08-22T20:41:14.330Z,99432.94
2022-08-22T20:44:21.730Z,99433.91
2022-08-22T20:47:24.999Z,99436.16
2022-08-22T20:50:28.799Z,99432.94
2022-08-22T20:53:30.386Z,99440.72
2022-08-22T20:56:36.934Z,99441.59
2022-08-22T20:59:39.403Z,99444.97
2022-08-22T21:02:44.216Z,99444.28
2022-08-22T21:05:46.266Z,99436.97
2022-08-22T21:09:11.288Z,99442.25
2022-08-22T21:12:13.230Z,99434.06
2022-08-22T21:15:28.908Z,99434.75
2022-08-22T21:18:32.487Z,99441.59
2022-08-22T21:21:34.619Z,99442.00
2022-08-22T21:24:36.144Z,99444.97
2022-08-22T21:27:37.641Z,99435.00
2022-08-22T21:30:39.199Z,99444.59
2022-08-22T21:33:45.194Z,99443.44
2022-08-22T21:36:50.131Z,99453.06
2022-08-22T21:39:58.309Z,99447.63
2022-08-22T21:43:10.778Z,99446.97
2022-08-22T21:46:12.248Z,99450.53
2022-08-22T21:49:27.437Z,99447.03
2022-08-22T21:52:30.249Z,99451.44
2022-08-22T21:55:36.162Z,99447.44
2022-08-22T21:58:38.826Z,99444.53
2022-08-22T22:01:42.708Z,99449.97
2022-08-22T22:04:47.335Z,99458.66
2022-08-22T22:07:48.857Z,99458.88
2022-08-22T22:10:50.795Z,99459.75
2022-08-22T22:13:52.521Z,99470.22
2022-08-22T22:16:54.021Z,99468.44
2022-08-22T22:19:55.639Z,99476.63
2022-08-22T22:22:57.183Z,99487.66
2022-08-22T22:26:01.115Z,99488.56
2022-08-22T22:29:03.055Z,99484.59
2022-08-22T22:32:04.709Z,99483.66
2022-08-22T22:35:06.525Z,99487.09
2022-08-22T22:38:08.676Z,99485.97
2022-08-22T22:41:10.196Z,99488.34
2022-08-22T22:44:11.890Z,99484.72
2022-08-22T22:47:13.440Z,99486.28
2022-08-22T22:50:15.008Z,99491.63
2022-08-22T22:53:19.912Z,99500.41
2022-08-22T22:56:23.186Z,99489.72
2022-08-22T22:59:25.398Z,99495.41
2022-08-22T23:02:26.984Z,99497.63
2022-08-22T23:05:32.510Z,99509.22
2022-08-22T23:08:34.019Z,99510.53
2022-08-22T23:11:35.678Z,99514.19
2022-08-22T23:14:37.288Z,99513.88
2022-08-22T23:17:39.131Z,99537.28
2022-08-22T23:20:40.660Z,99542.13
2022-08-22T23:23:42.304Z,99546.59
2022-08-22T23:26:43.803Z,99549.38
2022-08-22T23:29:45.334Z,99551.97
2022-08-22T23:32:46.909Z,99551.94
2022-08-22T23:35:48.364Z,99557.81
2022-08-22T23:38:50.854Z,99562.28
2022-08-22T23:41:52.878Z,99559.50
2022-08-22T23:44:54.598Z,99562.00
2022-08-22T23:47:56.204Z,99564.31
2022-08-22T23:50:57.677Z,99558.13
2022-08-22T23:53:59.686Z,99556.38
2022-08-22T23:57:02.246Z,99565.28
